Time;durP1;ratioP1;P1;durP2;ratioP2;P2;SDS_P1;SDS_P2;PMS_P1;PMS_P2;Temp;Humidity;BMP_temperature;BMP_pressure;BME280_temperature;BME280_humidity;BME280_pressure;Samples;Min_cycle;Max_cycle;Signal;HPM_P1;HPM_P2
2023/03/09 00:00:32;;;;;;;1.60;0.83;;;9.00;99.90;;;;;;5034599;28;20429;-68
2023/03/09 00:02:58;;;;;;;2.50;1.20;;;9.00;99.90;;;;;;5033643;28;21133;-67
2023/03/09 00:05:24;;;;;;;2.57;1.23;;;9.00;99.90;;;;;;5034428;28;20507;-67
2023/03/09 00:07:49;;;;;;;3.23;1.20;;;9.00;99.90;;;;;;5034729;28;20221;-68
2023/03/09 00:10:15;;;;;;;2.07;0.90;;;8.90;99.90;;;;;;5034564;28;20679;-68
2023/03/09 00:12:41;;;;;;;1.20;0.67;;;8.90;99.90;;;;;;5034260;28;20193;-68
2023/03/09 00:15:09;;;;;;;2.83;0.90;;;8.90;99.90;;;;;;5034779;28;20925;-68
2023/03/09 00:17:34;;;;;;;2.03;1.00;;;8.90;99.90;;;;;;5034800;28;20614;-68
2023/03/09 00:20:17;;;;;;;1.50;0.90;;;8.90;99.90;;;;;;5034523;28;20449;-68
2023/03/09 00:22:50;;;;;;;1.40;0.70;;;8.90;99.90;;;;;;5034641;28;20264;-67
2023/03/09 00:25:17;;;;;;;3.03;1.50;;;8.90;99.90;;;;;;5025610;28;20420;-68
2023/03/09 00:27:45;;;;;;;1.40;0.57;;;8.90;99.90;;;;;;5033815;28;20922;-68
2023/03/09 00:30:12;;;;;;;2.10;1.07;;;8.80;99.90;;;;;;5034975;28;20480;-68
2023/03/09 00:32:39;;;;;;;2.47;0.90;;;8.70;99.90;;;;;;5033106;28;20412;-68
2023/03/09 00:35:05;;;;;;;3.93;0.80;;;8.80;99.90;;;;;;5033416;28;20448;-68
2023/03/09 00:37:31;;;;;;;4.80;0.47;;;8.70;99.90;;;;;;5030642;28;20474;-68
2023/03/09 00:39:57;;;;;;;2.47;0.57;;;8.70;99.90;;;;;;5027142;28;20429;-68
2023/03/09 00:42:22;;;;;;;1.20;0.50;;;8.60;99.90;;;;;;5032459;28;20436;-68
2023/03/09 00:44:48;;;;;;;2.80;0.57;;;8.50;99.90;;;;;;5033102;28;20225;-68
2023/03/09 00:47:13;;;;;;;1.37;0.50;;;8.40;99.90;;;;;;5032661;28;20273;-68
2023/03/09 00:49:39;;;;;;;3.80;0.50;;;8.40;99.90;;;;;;5033045;28;20651;-68
2023/03/09 00:52:05;;;;;;;4.03;0.60;;;8.40;99.90;;;;;;5032258;28;20691;-68
2023/03/09 00:54:30;;;;;;;2.70;0.60;;;8.40;99.90;;;;;;5033318;28;20179;-68
2023/03/09 00:56:56;;;;;;;1.80;0.60;;;8.50;99.90;;;;;;5032445;28;20425;-68
2023/03/09 00:59:22;;;;;;;1.10;0.50;;;8.40;99.90;;;;;;5033078;28;20282;-68
2023/03/09 01:01:47;;;;;;;1.40;0.60;;;8.40;99.90;;;;;;5031976;28;20269;-69
2023/03/09 01:04:13;;;;;;;3.83;0.53;;;8.30;99.90;;;;;;5032969;28;20194;-69
2023/03/09 01:06:39;;;;;;;1.30;0.40;;;8.40;99.90;;;;;;5034663;28;20627;-69
2023/03/09 01:09:05;;;;;;;1.10;0.40;;;8.30;99.90;;;;;;5032953;28;20205;-68
2023/03/09 01:11:30;;;;;;;1.00;0.40;;;8.20;99.90;;;;;;5032016;28;20507;-68
2023/03/09 01:13:56;;;;;;;1.50;0.60;;;8.20;99.90;;;;;;5032416;28;20433;-68
2023/03/09 01:16:22;;;;;;;4.43;0.70;;;8.10;99.90;;;;;;5034526;28;20186;-68
2023/03/09 01:18:47;;;;;;;1.10;0.40;;;8.10;99.90;;;;;;5032741;28;20182;-69
2023/03/09 01:21:13;;;;;;;1.20;0.50;;;8.00;99.90;;;;;;5034420;28;20761;-68
2023/03/09 01:23:40;;;;;;;1.60;0.70;;;8.00;99.90;;;;;;5032233;28;20174;-68
2023/03/09 01:26:07;;;;;;;1.20;0.50;;;8.00;99.90;;;;;;5028813;28;20654;-68
2023/03/09 01:28:34;;;;;;;1.57;0.50;;;7.90;99.90;;;;;;5032252;28;20416;-68
2023/03/09 01:31:00;;;;;;;1.43;0.60;;;7.90;99.90;;;;;;5032155;28;20788;-68
2023/03/09 01:33:26;;;;;;;1.10;0.40;;;7.80;99.90;;;;;;5031895;28;20418;-68
2023/03/09 01:35:52;;;;;;;4.30;1.13;;;7.80;99.90;;;;;;5032004;28;20428;-68
2023/03/09 01:38:18;;;;;;;1.93;0.50;;;7.80;99.90;;;;;;5032089;28;20193;-68
2023/03/09 01:40:46;;;;;;;2.33;0.50;;;7.80;99.90;;;;;;5031974;28;20420;-68
2023/03/09 01:43:31;;;;;;;1.10;0.40;;;7.80;99.90;;;;;;5031786;28;20687;-68
2023/03/09 01:46:22;;;;;;;3.40;1.17;;;7.80;99.90;;;;;;5031788;28;20431;-68
2023/03/09 01:48:51;;;;;;;4.90;0.60;;;7.80;99.90;;;;;;5027609;28;20417;-68
2023/03/09 01:51:19;;;;;;;1.40;0.60;;;7.80;99.90;;;;;;5031548;28;20425;-68
2023/03/09 01:53:46;;;;;;;1.10;0.50;;;7.80;99.90;;;;;;5031578;28;20923;-69
2023/03/09 01:56:15;;;;;;;1.10;0.40;;;7.70;99.90;;;;;;5031394;28;20416;-69
2023/03/09 01:58:41;;;;;;;1.10;0.40;;;8.50;99.90;;;;;;5031863;28;20544;-68
2023/03/09 02:01:08;;;;;;;1.10;0.50;;;7.60;99.90;;;;;;5030808;28;20847;-68
2023/03/09 02:03:38;;;;;;;1.03;0.40;;;7.30;99.90;;;;;;5031393;28;20223;-68
2023/03/09 02:06:14;;;;;;;1.10;0.50;;;7.60;99.90;;;;;;5031726;28;20427;-69
2023/03/09 02:08:52;;;;;;;1.00;0.40;;;7.50;99.90;;;;;;5031816;28;20425;-69
2023/03/09 02:11:18;;;;;;;1.20;0.57;;;7.40;99.90;;;;;;5030704;28;20437;-69
2023/03/09 02:13:50;;;;;;;1.07;0.40;;;7.40;99.90;;;;;;5031719;28;20429;-69
2023/03/09 02:16:16;;;;;;;1.10;0.50;;;7.40;99.90;;;;;;5031513;28;20811;-69
2023/03/09 02:18:41;;;;;;;1.67;0.50;;;7.30;99.90;;;;;;5040002;28;20451;-69
2023/03/09 02:21:25;;;;;;;1.70;0.53;;;7.30;99.90;;;;;;5035694;28;20449;-69
2023/03/09 02:24:06;;;;;;;1.20;0.77;;;7.20;99.90;;;;;;5030957;28;20189;-69
2023/03/09 02:26:35;;;;;;;1.10;0.40;;;7.20;99.90;;;;;;5031132;28;20483;-69
2023/03/09 02:29:02;;;;;;;1.07;0.40;;;7.10;99.90;;;;;;5030538;28;20892;-69
2023/03/09 02:31:28;;;;;;;1.27;0.47;;;7.10;99.90;;;;;;5037384;28;20459;-69
2023/03/09 02:33:54;;;;;;;1.00;0.40;;;7.10;99.90;;;;;;5030962;28;20421;-69
2023/03/09 02:36:21;;;;;;;1.10;0.40;;;7.10;99.90;;;;;;5031402;28;20432;-69
2023/03/09 02:38:47;;;;;;;1.13;0.50;;;7.10;99.90;;;;;;5031207;28;20185;-69
2023/03/09 02:41:13;;;;;;;1.10;0.40;;;7.10;99.90;;;;;;5030881;28;20417;-69
2023/03/09 02:43:47;;;;;;;1.10;0.40;;;7.10;99.90;;;;;;5030386;28;20445;-70
2023/03/09 02:46:13;;;;;;;1.10;0.40;;;7.20;99.90;;;;;;5031142;28;20471;-69
2023/03/09 02:48:38;;;;;;;1.10;0.40;;;7.30;99.90;;;;;;5031194;28;20453;-69
2023/03/09 02:51:06;;;;;;;1.10;0.40;;;7.20;99.90;;;;;;5030887;28;20698;-69
2023/03/09 02:53:31;;;;;;;1.20;0.50;;;7.30;99.90;;;;;;5030851;28;20202;-70
2023/03/09 02:55:57;;;;;;;1.10;0.50;;;7.50;99.90;;;;;;5030669;28;20453;-70
2023/03/09 02:58:23;;;;;;;1.57;0.60;;;7.30;99.90;;;;;;5030704;28;20421;-70
2023/03/09 03:00:49;;;;;;;4.80;0.60;;;7.20;99.90;;;;;;5030912;28;20201;-70
2023/03/09 03:03:14;;;;;;;4.60;0.80;;;7.30;99.90;;;;;;5030259;28;20554;-70
2023/03/09 03:05:40;;;;;;;1.40;0.67;;;7.20;99.90;;;;;;5030558;28;20511;-70
2023/03/09 03:08:06;;;;;;;1.10;0.50;;;7.30;99.90;;;;;;5029911;28;20274;-70
2023/03/09 03:10:31;;;;;;;1.30;0.50;;;7.30;99.90;;;;;;5030289;28;20253;-69
2023/03/09 03:12:57;;;;;;;1.10;0.50;;;7.20;99.90;;;;;;5028810;28;20178;-70
2023/03/09 03:15:22;;;;;;;1.20;0.53;;;7.20;99.90;;;;;;5030761;28;20284;-70
2023/03/09 03:17:48;;;;;;;2.50;0.70;;;7.30;99.90;;;;;;5030174;28;20178;-70
2023/03/09 03:20:14;;;;;;;1.60;0.80;;;7.30;99.90;;;;;;5030480;28;20202;-70
2023/03/09 03:22:41;;;;;;;2.30;0.90;;;7.50;99.90;;;;;;5029597;28;20796;-70
2023/03/09 03:25:07;;;;;;;1.30;0.53;;;7.70;99.90;;;;;;5028983;28;20190;-70
2023/03/09 03:27:33;;;;;;;1.30;0.50;;;7.90;99.90;;;;;;5029805;28;20674;-70
2023/03/09 03:29:58;;;;;;;2.23;0.87;;;7.90;99.90;;;;;;5030400;28;20969;-69
2023/03/09 03:32:24;;;;;;;1.53;0.80;;;8.00;99.90;;;;;;5030061;28;20214;-69
2023/03/09 03:34:50;;;;;;;1.10;0.40;;;7.90;99.90;;;;;;5030394;28;20183;-70
2023/03/09 03:37:16;;;;;;;1.10;0.40;;;7.90;99.90;;;;;;5030055;28;20431;-70
2023/03/09 03:39:41;;;;;;;2.23;0.53;;;7.80;99.90;;;;;;5030429;28;20182;-69
2023/03/09 03:42:07;;;;;;;1.07;0.40;;;7.70;99.90;;;;;;5029691;28;20186;-69
2023/03/09 03:44:33;;;;;;;1.03;0.40;;;7.70;99.90;;;;;;5030527;28;20189;-70
2023/03/09 03:46:58;;;;;;;1.10;0.40;;;7.60;99.90;;;;;;5030473;28;20182;-70
2023/03/09 03:49:24;;;;;;;1.83;0.60;;;7.50;99.90;;;;;;5030307;28;20210;-70
2023/03/09 03:51:49;;;;;;;1.17;0.50;;;7.40;99.90;;;;;;5029741;28;20187;-70
2023/03/09 03:54:15;;;;;;;2.50;0.83;;;7.40;99.90;;;;;;5030099;28;20236;-69
2023/03/09 03:56:41;;;;;;;1.17;0.50;;;7.30;99.90;;;;;;5030069;28;20194;-69
2023/03/09 03:59:06;;;;;;;1.10;0.50;;;7.30;99.90;;;;;;5012103;28;20174;-70
2023/03/09 04:01:32;;;;;;;4.27;0.83;;;7.30;99.90;;;;;;5030023;28;20265;-70
2023/03/09 04:03:57;;;;;;;2.63;0.77;;;7.20;99.90;;;;;;5030185;28;20183;-70
2023/03/09 04:06:23;;;;;;;1.10;0.50;;;7.20;99.90;;;;;;5029829;28;20183;-69
2023/03/09 04:08:49;;;;;;;1.13;0.50;;;7.20;99.90;;;;;;5030008;28;20332;-70
2023/03/09 04:11:14;;;;;;;2.13;0.60;;;7.20;99.90;;;;;;5030537;28;20244;-70
2023/03/09 04:13:40;;;;;;;3.23;1.40;;;7.20;99.90;;;;;;5031321;28;20196;-70
2023/03/09 04:16:06;;;;;;;7.23;1.03;;;7.10;99.90;;;;;;5032375;28;20669;-69
2023/03/09 04:18:31;;;;;;;2.33;0.90;;;7.10;99.90;;;;;;5031549;28;20584;-69
2023/03/09 04:20:57;;;;;;;3.97;0.60;;;7.10;99.90;;;;;;5037215;28;20641;-69
2023/03/09 04:23:24;;;;;;;1.70;0.80;;;7.20;99.90;;;;;;5030873;28;20185;-66
2023/03/09 04:25:57;;;;;;;3.43;1.37;;;7.20;99.90;;;;;;5034549;28;20206;-66
2023/03/09 04:28:24;;;;;;;3.93;0.93;;;7.20;99.90;;;;;;5033512;28;20413;-65
2023/03/09 04:30:49;;;;;;;3.27;1.17;;;7.20;99.90;;;;;;5034239;28;20464;-66
2023/03/09 04:33:15;;;;;;;3.20;0.87;;;7.20;99.90;;;;;;5033532;28;20772;-66
2023/03/09 04:35:42;;;;;;;4.50;0.87;;;7.20;99.90;;;;;;5033530;28;20171;-66
2023/03/09 04:38:08;;;;;;;7.90;1.43;;;7.20;99.90;;;;;;5033028;28;20181;-66
2023/03/09 04:40:34;;;;;;;7.40;1.47;;;7.20;99.90;;;;;;5033244;28;20422;-66
2023/03/09 04:43:00;;;;;;;4.60;1.57;;;7.30;99.90;;;;;;5034343;28;20462;-66
2023/03/09 04:45:26;;;;;;;7.40;1.10;;;7.30;99.90;;;;;;5033246;28;20906;-67
2023/03/09 04:47:52;;;;;;;6.77;1.57;;;7.30;99.90;;;;;;5033054;28;20487;-66
2023/03/09 04:50:18;;;;;;;1.87;0.83;;;7.20;99.90;;;;;;5032832;28;20202;-67
2023/03/09 04:52:43;;;;;;;2.40;1.03;;;7.30;99.90;;;;;;5032173;28;20178;-67
2023/03/09 04:55:09;;;;;;;4.07;1.77;;;7.20;99.90;;;;;;5032962;28;20245;-67
2023/03/09 04:57:35;;;;;;;3.57;1.27;;;7.20;99.90;;;;;;5032345;28;20221;-67
2023/03/09 05:00:00;;;;;;;6.23;1.77;;;7.20;99.90;;;;;;5032980;28;20182;-67
2023/03/09 05:02:28;;;;;;;2.60;1.10;;;7.30;99.90;;;;;;5031945;28;20189;-67
2023/03/09 05:04:54;;;;;;;2.43;1.00;;;7.30;99.90;;;;;;5032860;28;20182;-67
2023/03/09 05:07:20;;;;;;;3.83;1.13;;;7.30;99.90;;;;;;5032150;28;20421;-68
2023/03/09 05:09:46;;;;;;;6.50;1.23;;;7.30;99.90;;;;;;5032841;28;21015;-67
2023/03/09 05:12:11;;;;;;;2.83;0.87;;;7.30;99.90;;;;;;5030034;28;20186;-68
2023/03/09 05:14:37;;;;;;;8.77;1.77;;;7.40;99.90;;;;;;5032140;28;20201;-69
2023/03/09 05:17:03;;;;;;;3.00;1.47;;;7.50;99.90;;;;;;5032043;28;20174;-68
2023/03/09 05:19:29;;;;;;;2.33;0.90;;;7.40;99.90;;;;;;5032833;28;20193;-70
2023/03/09 05:21:55;;;;;;;6.50;2.73;;;7.40;99.90;;;;;;5031890;28;20890;-70
2023/03/09 05:24:21;;;;;;;5.63;1.30;;;7.40;99.90;;;;;;5032198;28;20493;-71
2023/03/09 05:26:46;;;;;;;5.07;1.80;;;7.20;99.90;;;;;;5032202;28;20178;-70
2023/03/09 05:29:12;;;;;;;6.93;1.57;;;7.20;99.90;;;;;;5032045;28;20529;-69
2023/03/09 05:31:41;;;;;;;8.47;1.93;;;7.10;99.90;;;;;;5031924;28;20663;-70
2023/03/09 05:34:06;;;;;;;5.07;1.60;;;7.10;99.90;;;;;;5031774;28;20167;-70
2023/03/09 05:36:32;;;;;;;2.97;1.23;;;7.00;99.90;;;;;;5031429;28;20424;-69
2023/03/09 05:38:58;;;;;;;10.73;2.13;;;6.90;99.90;;;;;;5029338;28;20190;-69
2023/03/09 05:41:23;;;;;;;3.40;1.37;;;7.00;99.90;;;;;;5030360;28;20186;-69
2023/03/09 05:43:49;;;;;;;6.57;0.93;;;7.00;99.90;;;;;;5030860;28;20182;-69
2023/03/09 05:46:16;;;;;;;2.90;0.87;;;7.10;99.90;;;;;;5031723;28;20251;-69
2023/03/09 05:48:43;;;;;;;3.83;1.60;;;7.10;99.90;;;;;;5030789;28;20750;-69
2023/03/09 05:51:10;;;;;;;3.70;1.20;;;7.10;99.90;;;;;;5031995;28;20471;-69
2023/03/09 05:53:36;;;;;;;2.57;1.07;;;7.10;99.90;;;;;;5033403;28;20500;-69
2023/03/09 05:56:05;;;;;;;3.53;0.90;;;7.10;99.90;;;;;;5031644;28;20870;-69
2023/03/09 05:58:31;;;;;;;4.70;1.57;;;7.10;99.90;;;;;;5031266;28;20424;-69
2023/03/09 06:00:56;;;;;;;3.60;1.50;;;7.10;99.90;;;;;;5032156;28;20426;-69
2023/03/09 06:03:23;;;;;;;1.80;1.03;;;7.20;99.90;;;;;;5031190;28;20191;-69
2023/03/09 06:06:01;;;;;;;6.30;1.70;;;7.20;99.90;;;;;;5032085;28;20548;-68
2023/03/09 06:08:27;;;;;;;2.00;0.60;;;7.10;99.90;;;;;;5029599;28;20421;-68
2023/03/09 06:10:53;;;;;;;2.73;1.00;;;7.10;99.90;;;;;;5031800;28;20988;-68
2023/03/09 06:13:20;;;;;;;6.10;1.50;;;7.10;99.90;;;;;;5031370;28;20425;-68
2023/03/09 06:15:46;;;;;;;3.43;1.30;;;7.10;99.90;;;;;;5032380;28;20170;-68
2023/03/09 06:18:11;;;;;;;5.20;1.80;;;7.10;99.90;;;;;;5031979;28;20428;-68
2023/03/09 06:20:37;;;;;;;3.53;1.33;;;7.10;99.90;;;;;;5031987;28;20198;-67
2023/03/09 06:23:03;;;;;;;8.03;1.07;;;7.10;99.90;;;;;;5031315;28;20190;-69
2023/03/09 06:25:29;;;;;;;2.13;0.97;;;7.20;99.90;;;;;;5031828;28;20175;-69
2023/03/09 06:27:55;;;;;;;2.40;1.23;;;7.20;99.90;;;;;;5031404;28;20940;-68
2023/03/09 06:30:21;;;;;;;4.30;1.50;;;7.20;99.90;;;;;;5029724;28;20460;-68
2023/03/09 06:32:47;;;;;;;3.00;1.07;;;7.20;99.90;;;;;;5030106;28;20228;-68
2023/03/09 06:35:13;;;;;;;1.30;0.80;;;7.30;99.90;;;;;;5031207;28;20445;-68
2023/03/09 06:37:39;;;;;;;4.27;1.77;;;7.30;99.90;;;;;;5031850;28;20452;-68
2023/03/09 06:40:05;;;;;;;4.20;1.67;;;7.40;99.90;;;;;;5025940;28;20193;-68
2023/03/09 06:42:31;;;;;;;2.17;0.70;;;7.40;99.90;;;;;;5029041;28;20608;-68
2023/03/09 06:44:56;;;;;;;4.20;1.00;;;7.50;99.90;;;;;;5027542;28;20482;-68
2023/03/09 06:47:22;;;;;;;1.73;0.70;;;7.50;99.90;;;;;;5027262;28;20635;-68
2023/03/09 06:49:47;;;;;;;2.37;1.10;;;7.60;99.90;;;;;;5030666;28;20212;-68
2023/03/09 06:52:13;;;;;;;5.33;1.67;;;7.70;99.90;;;;;;5024749;28;20616;-68
2023/03/09 06:54:38;;;;;;;3.83;1.00;;;7.70;99.90;;;;;;5028958;28;20265;-68
2023/03/09 06:57:04;;;;;;;1.60;0.77;;;7.60;99.90;;;;;;5028652;28;20243;-68
2023/03/09 06:59:30;;;;;;;4.10;1.17;;;7.60;99.90;;;;;;5030926;28;20620;-68
2023/03/09 07:01:56;;;;;;;2.20;0.80;;;7.70;99.90;;;;;;5011018;28;20627;-68
2023/03/09 07:04:21;;;;;;;1.53;0.70;;;7.70;99.90;;;;;;5030497;28;20183;-67
2023/03/09 07:06:47;;;;;;;2.57;1.00;;;7.80;99.90;;;;;;5026209;28;20206;-67
2023/03/09 07:09:13;;;;;;;7.37;1.60;;;7.80;99.90;;;;;;5030026;28;20267;-68
2023/03/09 07:11:38;;;;;;;5.33;1.07;;;7.90;99.90;;;;;;5027661;28;20182;-70
2023/03/09 07:14:04;;;;;;;6.60;0.67;;;8.00;99.90;;;;;;5011682;28;20219;-68
2023/03/09 07:16:30;;;;;;;2.03;0.80;;;8.10;99.90;;;;;;5029283;28;20195;-68
2023/03/09 07:18:56;;;;;;;3.63;1.00;;;8.10;99.90;;;;;;5030091;28;20877;-70
2023/03/09 07:21:22;;;;;;;3.30;1.27;;;8.20;99.90;;;;;;5030076;28;20429;-69
2023/03/09 07:23:48;;;;;;;4.07;1.57;;;8.20;99.90;;;;;;5017551;28;20895;-68
2023/03/09 07:26:16;;;;;;;4.63;1.47;;;8.30;99.90;;;;;;5029882;28;20564;-70
2023/03/09 07:28:42;;;;;;;5.90;1.97;;;8.40;99.90;;;;;;5011599;28;20205;-70
2023/03/09 07:31:10;;;;;;;1.83;0.80;;;8.60;99.90;;;;;;5030430;28;20469;-71
2023/03/09 07:33:35;;;;;;;11.03;1.53;;;8.70;99.90;;;;;;5030698;28;20174;-70
2023/03/09 07:36:05;;;;;;;1.53;0.80;;;8.70;99.90;;;;;;5030243;28;20421;-71
2023/03/09 07:38:31;;;;;;;4.70;1.23;;;8.60;99.90;;;;;;5029922;28;20537;-71
2023/03/09 07:40:58;;;;;;;2.63;1.03;;;8.60;99.90;;;;;;5029816;28;20433;-71
2023/03/09 07:43:24;;;;;;;5.50;1.80;;;8.60;99.90;;;;;;5031622;28;20190;-70
2023/03/09 07:45:49;;;;;;;1.87;0.70;;;8.70;99.90;;;;;;5029495;28;20483;-70
2023/03/09 07:48:15;;;;;;;4.30;1.40;;;9.10;99.90;;;;;;5021961;28;20620;-71
2023/03/09 07:50:42;;;;;;;3.60;1.20;;;9.70;99.90;;;;;;5029636;28;20226;-71
2023/03/09 07:53:08;;;;;;;6.37;0.70;;;10.20;99.90;;;;;;5029897;28;20429;-70
2023/03/09 07:55:34;;;;;;;2.13;0.97;;;10.20;99.90;;;;;;5030179;28;20417;-71
2023/03/09 07:58:01;;;;;;;3.30;1.00;;;10.40;99.90;;;;;;5027343;28;20175;-70
2023/03/09 08:00:28;;;;;;;2.80;0.80;;;10.90;99.90;;;;;;5032441;28;20440;-70
2023/03/09 08:02:54;;;;;;;2.77;1.00;;;11.20;99.90;;;;;;5032530;28;20425;-70
2023/03/09 08:05:20;;;;;;;2.47;1.00;;;11.60;99.90;;;;;;5032704;28;20502;-70
2023/03/09 08:07:47;;;;;;;2.73;0.90;;;11.60;99.90;;;;;;5032313;28;20458;-70
2023/03/09 08:10:14;;;;;;;1.87;0.80;;;11.50;99.90;;;;;;5032856;28;20464;-70
2023/03/09 08:12:46;;;;;;;2.80;1.80;;;11.80;99.90;;;;;;5031250;28;21373;-70
2023/03/09 08:15:11;;;;;;;3.50;1.13;;;12.10;99.90;;;;;;5031293;28;20940;-70
2023/03/09 08:17:37;;;;;;;2.53;0.93;;;11.60;99.90;;;;;;5031120;28;20467;-70
2023/03/09 08:20:11;;;;;;;3.03;0.97;;;11.30;99.90;;;;;;5031689;28;20240;-70
2023/03/09 08:22:37;;;;;;;5.40;1.00;;;10.70;99.90;;;;;;5029412;28;20282;-70
2023/03/09 08:25:03;;;;;;;1.87;0.87;;;10.30;99.90;;;;;;5030664;28;20535;-71
2023/03/09 08:27:29;;;;;;;4.20;0.87;;;10.20;99.90;;;;;;5027935;28;20536;-71
2023/03/09 08:29:55;;;;;;;2.03;0.90;;;10.20;99.90;;;;;;5032448;28;20845;-68
2023/03/09 08:32:23;;;;;;;1.20;0.57;;;10.00;99.90;;;;;;5032515;28;20440;-68
2023/03/09 08:34:53;;;;;;;2.60;0.80;;;10.10;99.90;;;;;;5032591;28;20183;-68
2023/03/09 08:37:19;;;;;;;20.33;1.53;;;9.80;99.90;;;;;;5032153;28;20413;-68
2023/03/09 08:39:44;;;;;;;4.43;1.27;;;9.70;99.90;;;;;;5034193;28;20922;-68
2023/03/09 08:42:10;;;;;;;1.97;0.63;;;9.70;99.90;;;;;;5031599;28;20187;-68
2023/03/09 08:44:35;;;;;;;3.83;1.00;;;9.70;99.90;;;;;;5026350;28;20631;-67
2023/03/09 08:47:01;;;;;;;1.30;0.60;;;9.60;99.90;;;;;;5031973;28;20205;-67
2023/03/09 08:49:27;;;;;;;1.93;1.00;;;9.70;99.90;;;;;;5031582;28;20686;-68
2023/03/09 08:51:52;;;;;;;3.77;0.70;;;9.80;99.90;;;;;;5031505;28;20193;-71
2023/03/09 08:54:18;;;;;;;9.63;1.30;;;9.70;99.90;;;;;;5035043;28;20186;-68
2023/03/09 08:56:43;;;;;;;2.90;0.97;;;9.70;99.90;;;;;;5031775;28;20210;-68
2023/03/09 08:59:09;;;;;;;1.83;0.60;;;9.80;99.90;;;;;;5031392;28;20214;-70
2023/03/09 09:01:35;;;;;;;3.93;0.70;;;10.10;99.90;;;;;;5033562;28;20289;-71
2023/03/09 09:04:00;;;;;;;4.50;1.00;;;10.50;99.90;;;;;;5031698;28;20214;-71
2023/03/09 09:06:27;;;;;;;1.83;0.60;;;10.60;99.90;;;;;;5031353;28;20255;-71
2023/03/09 09:08:53;;;;;;;2.00;0.77;;;10.50;99.90;;;;;;5029751;28;20338;-70
2023/03/09 09:11:19;;;;;;;3.97;1.07;;;10.40;99.90;;;;;;5028594;28;20973;-70
2023/03/09 09:13:45;;;;;;;2.40;1.03;;;10.10;99.90;;;;;;5029950;28;20433;-70
2023/03/09 09:16:12;;;;;;;2.13;0.90;;;9.90;99.90;;;;;;5030358;28;20178;-69
2023/03/09 09:18:38;;;;;;;1.70;0.70;;;9.60;99.90;;;;;;5035876;28;20424;-68
2023/03/09 09:21:07;;;;;;;1.70;0.63;;;9.50;99.90;;;;;;5032708;28;20447;-69
2023/03/09 09:23:34;;;;;;;4.40;0.80;;;9.40;99.90;;;;;;5031736;28;20439;-70
2023/03/09 09:26:00;;;;;;;1.70;0.90;;;9.20;99.90;;;;;;5031512;28;20433;-69
2023/03/09 09:28:25;;;;;;;1.40;0.60;;;9.20;99.90;;;;;;5012426;28;20518;-69
2023/03/09 09:30:59;;;;;;;6.63;0.83;;;9.20;99.90;;;;;;5030399;28;20289;-69
2023/03/09 09:33:27;;;;;;;4.50;1.07;;;9.00;99.90;;;;;;5029517;28;20567;-70
2023/03/09 09:36:01;;;;;;;1.50;0.70;;;9.00;99.90;;;;;;5031372;28;20920;-69
2023/03/09 09:38:28;;;;;;;4.67;1.00;;;9.10;99.90;;;;;;5029609;28;20413;-71
2023/03/09 09:40:57;;;;;;;4.80;0.70;;;9.20;99.90;;;;;;5031816;28;20807;-69
2023/03/09 09:43:23;;;;;;;4.73;1.33;;;9.10;99.90;;;;;;5030109;28;20425;-70
2023/03/09 09:45:51;;;;;;;2.47;0.80;;;9.10;99.90;;;;;;5032192;28;20425;-69
2023/03/09 09:48:18;;;;;;;1.43;0.70;;;9.10;99.90;;;;;;5032007;28;20924;-69
2023/03/09 09:51:05;;;;;;;3.27;1.13;;;9.10;99.90;;;;;;5034376;28;21172;-69
2023/03/09 09:54:04;;;;;;;6.53;0.97;;;9.20;99.90;;;;;;5025892;28;20816;-69
2023/03/09 09:56:50;;;;;;;2.80;0.93;;;9.30;99.90;;;;;;5002187;28;20471;-69
2023/03/09 09:59:23;;;;;;;1.57;0.67;;;9.50;99.90;;;;;;5030203;28;20417;-69
2023/03/09 10:02:13;;;;;;;1.57;0.67;;;9.50;99.90;;;;;;5030879;28;20417;-70
2023/03/09 10:05:05;;;;;;;2.23;0.70;;;9.50;99.90;;;;;;5018941;28;20789;-70
2023/03/09 10:07:32;;;;;;;1.57;0.70;;;9.60;99.90;;;;;;5019678;28;20417;-69
2023/03/09 10:10:04;;;;;;;2.03;0.80;;;9.60;99.90;;;;;;5030754;28;20457;-69
2023/03/09 10:12:30;;;;;;;2.70;0.93;;;9.50;99.90;;;;;;5029324;28;20507;-69
2023/03/09 10:15:11;;;;;;;1.73;0.80;;;9.50;99.90;;;;;;5030494;28;20519;-70
2023/03/09 10:17:49;;;;;;;3.87;1.00;;;9.40;99.90;;;;;;5013162;28;20255;-69
2023/03/09 10:20:27;;;;;;;1.90;0.70;;;9.40;99.90;;;;;;5031021;28;20436;-70
2023/03/09 10:22:55;;;;;;;2.17;0.80;;;9.60;99.90;;;;;;5029981;28;20509;-69
2023/03/09 10:25:22;;;;;;;3.00;1.00;;;9.60;99.90;;;;;;5030240;28;20440;-69
2023/03/09 10:28:05;;;;;;;1.47;0.80;;;9.90;99.90;;;;;;5029945;28;20417;-69
2023/03/09 10:30:44;;;;;;;2.00;0.90;;;10.00;99.90;;;;;;5026628;28;20537;-70
2023/03/09 10:33:17;;;;;;;1.70;0.67;;;10.20;99.90;;;;;;5030146;28;20417;-68
2023/03/09 10:36:04;;;;;;;2.47;0.70;;;10.30;99.90;;;;;;5030222;28;20906;-68
2023/03/09 10:38:30;;;;;;;1.60;0.60;;;10.60;99.90;;;;;;5029454;28;20421;-68
2023/03/09 10:40:57;;;;;;;2.47;0.70;;;10.70;99.90;;;;;;5030732;28;20417;-68
2023/03/09 10:43:26;;;;;;;2.00;1.00;;;10.70;99.90;;;;;;5030542;28;20193;-68
2023/03/09 10:45:53;;;;;;;2.70;1.23;;;10.70;99.90;;;;;;5030009;28;20448;-68
2023/03/09 10:48:24;;;;;;;2.23;1.20;;;10.90;99.90;;;;;;5030450;28;20482;-69
2023/03/09 10:51:04;;;;;;;8.37;1.10;;;11.20;99.90;;;;;;5030339;28;20465;-68
2023/03/09 10:53:41;;;;;;;4.70;1.87;;;11.30;99.90;;;;;;5022228;28;20409;-68
2023/03/09 10:56:13;;;;;;;1.60;0.80;;;11.30;99.90;;;;;;5028098;28;20449;-68
2023/03/09 10:58:39;;;;;;;2.13;0.87;;;11.40;99.90;;;;;;5029216;28;20416;-68
2023/03/09 11:01:11;;;;;;;5.23;0.70;;;11.50;99.90;;;;;;5030408;28;20542;-68
2023/03/09 11:03:41;;;;;;;4.00;0.77;;;11.80;99.90;;;;;;5028822;28;20186;-68
2023/03/09 11:06:13;;;;;;;1.90;0.80;;;11.80;99.90;;;;;;5030257;28;20425;-69
2023/03/09 11:08:41;;;;;;;4.40;1.27;;;11.80;99.90;;;;;;5029382;28;20487;-69
2023/03/09 11:11:16;;;;;;;1.47;0.60;;;11.80;99.90;;;;;;5032366;28;20468;-70
2023/03/09 11:13:45;;;;;;;4.20;1.23;;;11.90;99.90;;;;;;5027279;28;20848;-70
2023/03/09 11:16:17;;;;;;;3.73;0.80;;;11.90;99.90;;;;;;5030505;28;20459;-69
2023/03/09 11:18:43;;;;;;;4.40;1.10;;;12.10;99.90;;;;;;5032965;28;20424;-70
2023/03/09 11:21:19;;;;;;;1.97;0.80;;;12.20;99.90;;;;;;5029260;28;20440;-70
2023/03/09 11:23:50;;;;;;;1.90;1.10;;;12.00;99.90;;;;;;5024037;28;20194;-69
2023/03/09 11:26:39;;;;;;;2.90;0.67;;;11.90;99.90;;;;;;5030148;28;20515;-70
2023/03/09 11:29:24;;;;;;;3.00;1.00;;;11.80;99.90;;;;;;5029599;28;20471;-68
2023/03/09 11:31:49;;;;;;;2.17;0.70;;;11.70;99.90;;;;;;5024348;28;20736;-68
2023/03/09 11:34:23;;;;;;;1.20;0.60;;;11.80;99.90;;;;;;5032978;28;20413;-68
2023/03/09 11:37:21;;;;;;;2.23;1.17;;;11.90;99.90;;;;;;5034185;28;20490;-68
2023/03/09 11:40:02;;;;;;;3.00;0.83;;;11.90;99.90;;;;;;5045181;23;20524;-68
2023/03/09 11:42:45;;;;;;;1.47;0.60;;;11.90;99.90;;;;;;5012709;28;20428;-68
2023/03/09 11:45:23;;;;;;;2.00;0.90;;;12.00;99.90;;;;;;5013479;28;20409;-68
2023/03/09 11:47:56;;;;;;;1.50;0.80;;;12.10;99.90;;;;;;5012147;28;20471;-68
2023/03/09 11:50:25;;;;;;;2.03;1.00;;;12.10;99.90;;;;;;5014768;28;20892;-68
2023/03/09 11:52:59;;;;;;;6.20;0.70;;;12.30;99.90;;;;;;5013454;28;20426;-68
2023/03/09 11:55:34;;;;;;;3.70;0.77;;;12.50;99.90;;;;;;5014411;28;20418;-68
2023/03/09 11:58:05;;;;;;;6.63;1.23;;;12.40;99.90;;;;;;5012507;28;20497;-68
2023/03/09 12:00:33;;;;;;;1.40;0.70;;;12.50;99.90;;;;;;5013870;28;20922;-68
2023/03/09 12:03:10;;;;;;;4.73;1.63;;;12.40;99.70;;;;;;5012814;28;20444;-68
2023/03/09 12:05:42;;;;;;;9.60;0.97;;;12.30;99.60;;;;;;5011415;28;20422;-68
2023/03/09 12:08:25;;;;;;;3.40;1.03;;;12.30;99.90;;;;;;5013365;28;21072;-68
2023/03/09 12:11:03;;;;;;;5.53;1.03;;;12.60;99.50;;;;;;5014036;28;20461;-69
2023/03/09 12:13:53;;;;;;;1.30;0.70;;;12.70;99.80;;;;;;5011935;28;20437;-69
2023/03/09 12:16:21;;;;;;;1.23;0.50;;;12.90;99.20;;;;;;5013772;28;20442;-70
2023/03/09 12:19:09;;;;;;;2.77;0.90;;;12.60;98.40;;;;;;5017790;28;20449;-70
2023/03/09 12:21:41;;;;;;;5.57;1.00;;;12.60;99.90;;;;;;5012954;28;20464;-71
2023/03/09 12:24:38;;;;;;;4.27;1.43;;;12.60;99.90;;;;;;5013066;28;20433;-71
2023/03/09 12:27:10;;;;;;;4.60;0.90;;;12.50;99.30;;;;;;5010148;28;20418;-69
2023/03/09 12:30:08;;;;;;;7.03;1.03;;;12.40;99.70;;;;;;5013025;28;20457;-70
2023/03/09 12:32:35;;;;;;;4.10;1.33;;;12.40;98.90;;;;;;5005267;28;20426;-70
2023/03/09 12:35:09;;;;;;;2.70;1.60;;;12.40;99.50;;;;;;5013082;28;20425;-69
2023/03/09 12:37:55;;;;;;;8.83;1.20;;;12.50;99.40;;;;;;5013015;28;21224;-69
2023/03/09 12:40:21;;;;;;;2.00;0.80;;;12.80;99.70;;;;;;5011647;28;20453;-69
2023/03/09 12:42:48;;;;;;;6.37;1.93;;;12.90;98.40;;;;;;4996655;28;20426;-70
2023/03/09 12:45:16;;;;;;;6.50;1.43;;;12.60;98.50;;;;;;5005936;28;20188;-70
2023/03/09 12:47:50;;;;;;;1.70;0.77;;;12.40;99.00;;;;;;5004401;28;22407;-69
2023/03/09 12:50:42;;;;;;;3.17;1.33;;;12.30;99.60;;;;;;5011503;28;20504;-69
2023/03/09 12:53:14;;;;;;;2.20;0.93;;;12.20;99.20;;;;;;5005861;28;20505;-69
2023/03/09 12:55:39;;;;;;;6.33;1.10;;;12.10;99.50;;;;;;4995327;28;20430;-69
2023/03/09 12:58:17;;;;;;;8.33;1.20;;;12.00;99.40;;;;;;4993728;28;20426;-69
2023/03/09 13:00:55;;;;;;;3.47;0.70;;;11.90;99.80;;;;;;4991410;28;20183;-68
2023/03/09 13:03:44;;;;;;;4.17;1.43;;;11.90;99.90;;;;;;4988516;28;21152;-69